Time;durP1;ratioP1;P1;durP2;ratioP2;P2;SDS_P1;SDS_P2;PMS_P1;PMS_P2;Temp;Humidity;BMP_temperature;BMP_pressure;BME280_temperature;BME280_humidity;BME280_pressure;Samples;Min_cycle;Max_cycle;Signal;HPM_P1;HPM_P2
2024/04/17 00:00:37;;;;;;;1999.90;999.90;;;9.70;73.60;;;;;;5432271;26;19999;-82
2024/04/17 00:03:03;;;;;;;1999.90;999.90;;;9.70;73.50;;;;;;5417914;26;20003;-83
2024/04/17 00:05:29;;;;;;;1999.90;999.90;;;9.70;73.60;;;;;;5422368;26;20018;-83
2024/04/17 00:07:54;;;;;;;1999.90;999.90;;;9.60;74.40;;;;;;5416462;26;20034;-84
2024/04/17 00:10:21;;;;;;;1999.90;999.90;;;9.50;75.20;;;;;;5416864;26;20450;-83
2024/04/17 00:12:46;;;;;;;1999.90;999.90;;;9.40;75.90;;;;;;5431573;26;20019;-81
2024/04/17 00:15:12;;;;;;;1999.90;999.90;;;9.50;76.70;;;;;;5432974;26;20019;-86
2024/04/17 00:17:38;;;;;;;1999.90;999.90;;;9.60;76.60;;;;;;5417108;26;20316;-79
2024/04/17 00:20:04;;;;;;;1999.90;999.90;;;9.50;76.60;;;;;;5425624;26;20003;-80
2024/04/17 00:22:29;;;;;;;1999.90;999.90;;;9.50;77.40;;;;;;5414939;26;20085;-82
2024/04/17 00:24:55;;;;;;;1999.90;999.90;;;9.40;77.40;;;;;;5408973;26;20000;-80
2024/04/17 00:27:21;;;;;;;1999.90;999.90;;;9.50;78.10;;;;;;5412770;26;20835;-84
2024/04/17 00:29:46;;;;;;;1999.90;999.90;;;9.60;78.20;;;;;;5406933;26;20579;-82
2024/04/17 00:32:12;;;;;;;1999.90;999.90;;;9.50;78.00;;;;;;5419759;26;19998;-83
2024/04/17 00:34:38;;;;;;;1999.90;999.90;;;9.50;78.20;;;;;;5414023;26;20356;-82
2024/04/17 00:37:03;;;;;;;1999.90;999.90;;;9.50;79.00;;;;;;5424671;26;20333;-84
2024/04/17 00:39:29;;;;;;;1999.90;999.90;;;9.40;81.40;;;;;;5413519;26;20450;-84
2024/04/17 00:41:55;;;;;;;1999.90;999.90;;;9.40;83.10;;;;;;5426928;26;20014;-81
2024/04/17 00:44:21;;;;;;;1999.90;999.90;;;9.40;83.40;;;;;;5407267;26;19999;-83
2024/04/17 00:46:47;;;;;;;1999.90;999.90;;;9.60;82.70;;;;;;5418385;26;20044;-81
2024/04/17 00:49:13;;;;;;;1999.90;999.90;;;9.30;83.60;;;;;;5420189;26;20088;-82
2024/04/17 00:51:39;;;;;;;1999.90;999.90;;;9.40;84.00;;;;;;5422922;26;19999;-83
2024/04/17 00:54:06;;;;;;;1999.90;999.90;;;9.30;84.40;;;;;;5403985;26;20716;-81
2024/04/17 00:56:33;;;;;;;1999.90;999.90;;;9.20;85.50;;;;;;5424441;26;20003;-81
2024/04/17 00:59:00;;;;;;;1999.90;999.90;;;9.30;85.70;;;;;;5407488;26;20549;-80
2024/04/17 01:01:25;;;;;;;1999.90;999.90;;;9.20;86.50;;;;;;5412220;26;20068;-81
2024/04/17 01:03:51;;;;;;;1999.90;999.90;;;9.30;87.30;;;;;;5418227;26;20008;-81
2024/04/17 01:06:18;;;;;;;1999.90;999.90;;;8.90;88.30;;;;;;5425752;26;20709;-81
2024/04/17 01:08:43;;;;;;;1999.90;999.90;;;9.00;89.10;;;;;;5405749;26;20072;-81
2024/04/17 01:11:09;;;;;;;1999.90;999.90;;;9.10;89.10;;;;;;5420223;26;20388;-80
2024/04/17 01:13:35;;;;;;;1999.90;999.90;;;9.10;89.30;;;;;;5417258;26;20705;-80
2024/04/17 01:16:01;;;;;;;1999.90;999.90;;;9.30;89.10;;;;;;5414219;26;20003;-80
2024/04/17 01:18:27;;;;;;;1999.90;999.90;;;9.30;88.90;;;;;;5429137;26;20003;-80
2024/04/17 01:20:54;;;;;;;;;;;9.40;88.10;;;;;;5419816;26;20079;-80
2024/04/17 01:23:19;;;;;;;1999.90;999.90;;;9.40;88.10;;;;;;5404758;26;19931;-83
2024/04/17 01:25:45;;;;;;;1999.90;999.90;;;9.50;88.00;;;;;;5413803;26;20535;-84
2024/04/17 01:28:11;;;;;;;1999.90;999.90;;;9.40;87.70;;;;;;5434975;26;20945;-84
2024/04/17 01:30:36;;;;;;;1999.90;999.90;;;9.30;88.50;;;;;;5410498;26;19996;-82
2024/04/17 01:33:02;;;;;;;1999.90;999.90;;;9.40;88.20;;;;;;5416972;26;19995;-84
2024/04/17 01:35:28;;;;;;;1999.90;999.90;;;9.40;88.00;;;;;;5408478;26;20014;-81
2024/04/17 01:37:53;;;;;;;1999.90;999.90;;;9.30;88.10;;;;;;5429837;26;20126;-84
2024/04/17 01:40:19;;;;;;;1999.90;999.90;;;9.30;88.60;;;;;;5412521;26;20826;-83
2024/04/17 01:42:45;;;;;;;1999.90;999.90;;;9.50;87.80;;;;;;5417919;26;20350;-83
2024/04/17 01:45:10;;;;;;;1999.90;999.90;;;9.40;87.90;;;;;;5410595;26;20006;-82
2024/04/17 01:47:36;;;;;;;1999.90;999.90;;;9.40;88.10;;;;;;5405281;26;20460;-84
2024/04/17 01:50:03;;;;;;;1999.90;999.90;;;9.30;89.10;;;;;;5422088;26;19998;-83
2024/04/17 01:52:28;;;;;;;1999.90;999.90;;;9.30;88.90;;;;;;5425009;26;20053;-82
2024/04/17 01:54:54;;;;;;;1999.90;999.90;;;9.40;89.10;;;;;;5408526;26;19996;-86
2024/04/17 01:57:20;;;;;;;1999.90;999.90;;;9.30;89.30;;;;;;5424820;26;20006;-85
2024/04/17 01:59:45;;;;;;;1999.90;999.90;;;9.30;89.00;;;;;;5415751;26;20003;-84
2024/04/17 02:02:11;;;;;;;1999.90;999.90;;;9.30;89.00;;;;;;5410890;26;19999;-86
2024/04/17 02:04:37;;;;;;;1999.90;999.90;;;9.30;88.80;;;;;;5405897;26;19996;-86
2024/04/17 02:07:02;;;;;;;1999.90;999.90;;;9.40;89.10;;;;;;5417752;26;20007;-86
2024/04/17 02:09:28;;;;;;;1999.90;999.90;;;9.30;89.00;;;;;;5415933;26;19995;-85
2024/04/17 02:11:54;;;;;;;1999.90;999.90;;;9.30;89.60;;;;;;5415170;26;20015;-85
2024/04/17 02:14:19;;;;;;;1999.90;999.90;;;9.40;89.50;;;;;;5429612;26;20585;-83
2024/04/17 02:16:45;;;;;;;1999.90;999.90;;;9.40;89.70;;;;;;5417383;26;20013;-83
2024/04/17 02:19:11;;;;;;;1999.90;999.90;;;9.40;89.30;;;;;;5416875;26;19998;-83
2024/04/17 02:21:36;;;;;;;1999.90;999.90;;;9.40;88.70;;;;;;5414912;26;19999;-81
2024/04/17 02:24:02;;;;;;;1999.90;999.90;;;9.40;88.50;;;;;;5410911;26;20015;-82
2024/04/17 02:26:28;;;;;;;1999.90;999.90;;;9.30;89.00;;;;;;5416189;26;20006;-82
2024/04/17 02:28:53;;;;;;;1999.90;999.90;;;9.30;89.90;;;;;;5428244;26;20074;-87
2024/04/17 02:31:19;;;;;;;1999.90;999.90;;;9.50;89.70;;;;;;5424065;26;19999;-85
2024/04/17 02:33:45;;;;;;;1999.90;999.90;;;9.30;89.10;;;;;;5420661;26;20007;-84
2024/04/17 02:36:11;;;;;;;1999.90;999.90;;;9.30;89.90;;;;;;5413288;26;20945;-85
2024/04/17 02:38:36;;;;;;;1999.90;999.90;;;9.20;90.20;;;;;;5426643;26;20862;-82
2024/04/17 02:41:02;;;;;;;1999.90;999.90;;;9.10;90.20;;;;;;5416809;26;19996;-83
2024/04/17 02:43:28;;;;;;;1999.90;999.90;;;9.10;90.30;;;;;;5420726;26;19996;-80
2024/04/17 02:45:53;;;;;;;1999.90;999.90;;;9.10;90.40;;;;;;5430378;26;20011;-83
2024/04/17 02:48:19;;;;;;;1999.90;999.90;;;9.10;90.50;;;;;;5405004;26;19996;-86
2024/04/17 02:50:45;;;;;;;1999.90;999.90;;;9.10;90.90;;;;;;5429440;26;20013;-82
2024/04/17 02:53:10;;;;;;;1999.90;999.90;;;9.20;90.40;;;;;;5417440;26;20994;-84
2024/04/17 02:55:36;;;;;;;1999.90;999.90;;;9.20;90.30;;;;;;5435709;26;20066;-83
2024/04/17 02:58:02;;;;;;;1999.90;999.90;;;9.30;90.30;;;;;;5424944;26;20458;-83
2024/04/17 03:00:27;;;;;;;1999.90;999.90;;;9.30;90.20;;;;;;5416406;26;19991;-83
2024/04/17 03:02:53;;;;;;;1999.90;999.90;;;9.20;90.40;;;;;;5415803;26;20093;-82
2024/04/17 03:05:19;;;;;;;1999.90;999.90;;;9.10;90.50;;;;;;5414399;26;20010;-85
2024/04/17 03:07:44;;;;;;;1999.90;999.90;;;9.20;90.70;;;;;;5420020;26;20238;-86
2024/04/17 03:10:11;;;;;;;1999.90;999.90;;;9.20;90.40;;;;;;5414387;26;19999;-81
2024/04/17 03:12:36;;;;;;;1999.90;999.90;;;9.30;90.60;;;;;;5420859;26;20014;-82
2024/04/17 03:15:03;;;;;;;1999.90;999.90;;;9.20;90.70;;;;;;5423291;26;20000;-84
2024/04/17 03:17:29;;;;;;;1999.90;999.90;;;9.20;90.50;;;;;;5420417;26;19996;-85
2024/04/17 03:19:55;;;;;;;1999.90;999.90;;;9.20;90.40;;;;;;5411031;26;19991;-83
2024/04/17 03:22:21;;;;;;;1999.90;999.90;;;9.30;90.60;;;;;;5410238;26;20007;-82
2024/04/17 03:24:47;;;;;;;1999.90;999.90;;;9.20;90.70;;;;;;5406822;26;20003;-83
2024/04/17 03:27:13;;;;;;;1999.90;999.90;;;9.10;91.20;;;;;;5419924;26;20013;-83
2024/04/17 03:29:38;;;;;;;1999.90;999.90;;;9.20;90.90;;;;;;5410931;26;20085;-83
2024/04/17 03:32:04;;;;;;;1999.90;999.90;;;9.30;90.80;;;;;;5415828;26;20018;-84
2024/04/17 03:34:30;;;;;;;1999.90;999.90;;;9.30;90.70;;;;;;5405070;26;19999;-82
2024/04/17 03:36:55;;;;;;;1999.90;999.90;;;9.10;90.80;;;;;;5411165;26;20697;-81
2024/04/17 03:39:21;;;;;;;1999.90;999.90;;;9.20;90.90;;;;;;5429727;26;20002;-84
2024/04/17 03:41:47;;;;;;;1999.90;999.90;;;9.20;91.00;;;;;;5421568;26;19999;-81
2024/04/17 03:44:13;;;;;;;1999.90;999.90;;;9.10;91.40;;;;;;5419779;26;20027;-80
2024/04/17 03:46:38;;;;;;;1999.90;999.90;;;9.00;91.30;;;;;;5420757;26;20774;-81
2024/04/17 03:49:04;;;;;;;1999.90;999.90;;;9.10;91.60;;;;;;5422005;26;20011;-84
2024/04/17 03:51:30;;;;;;;1999.90;999.90;;;9.10;91.20;;;;;;5413264;26;20464;-84
2024/04/17 03:53:55;;;;;;;1999.90;999.90;;;9.00;91.70;;;;;;5426724;26;20014;-82
2024/04/17 03:56:21;;;;;;;1999.90;999.90;;;9.10;91.50;;;;;;5419817;26;20682;-85
2024/04/17 03:58:47;;;;;;;1999.90;999.90;;;9.20;91.50;;;;;;5426980;26;20002;-82
2024/04/17 04:01:13;;;;;;;1999.90;999.90;;;9.10;91.60;;;;;;5417531;26;20007;-80
2024/04/17 04:03:39;;;;;;;1999.90;999.90;;;9.10;91.50;;;;;;5413259;26;20012;-84
2024/04/17 04:06:05;;;;;;;1999.90;999.90;;;9.00;91.70;;;;;;5413391;26;20549;-84
2024/04/17 04:08:31;;;;;;;1999.90;999.90;;;9.00;91.80;;;;;;5413866;26;19998;-82
2024/04/17 04:10:57;;;;;;;1999.90;999.90;;;8.90;91.80;;;;;;5414108;26;20015;-84
2024/04/17 04:13:22;;;;;;;1999.90;999.90;;;8.80;92.10;;;;;;5427661;26;20007;-82
2024/04/17 04:15:52;;;;;;;1999.90;999.90;;;8.80;92.30;;;;;;5412755;26;20343;-81
2024/04/17 04:18:18;;;;;;;1999.90;999.90;;;8.70;92.40;;;;;;5425120;26;20543;-80
2024/04/17 04:20:44;;;;;;;1999.90;999.90;;;8.80;92.50;;;;;;5414149;26;20003;-81
2024/04/17 04:23:09;;;;;;;1999.90;999.90;;;8.70;92.50;;;;;;5406927;26;20011;-84
2024/04/17 04:25:35;;;;;;;1999.90;999.90;;;8.70;92.50;;;;;;5417525;26;20003;-80
2024/04/17 04:28:01;;;;;;;1999.90;999.90;;;8.60;92.30;;;;;;5422543;26;19999;-82
2024/04/17 04:30:27;;;;;;;1999.90;999.90;;;8.60;92.60;;;;;;5412184;26;20441;-82
2024/04/17 04:32:53;;;;;;;1999.90;999.90;;;8.40;93.50;;;;;;5410191;26;20011;-83
2024/04/17 04:35:18;;;;;;;1999.90;999.90;;;8.50;93.20;;;;;;5414035;26;20006;-81
2024/04/17 04:37:46;;;;;;;1999.90;999.90;;;8.60;92.90;;;;;;5418043;26;20009;-84
2024/04/17 04:40:12;;;;;;;1999.90;999.90;;;8.60;92.90;;;;;;5420319;26;20072;-83
2024/04/17 04:42:38;;;;;;;1999.90;999.90;;;8.60;92.80;;;;;;5416649;26;20011;-79
2024/04/17 04:45:04;;;;;;;1999.90;999.90;;;8.70;92.80;;;;;;5430922;26;20480;-83
2024/04/17 04:47:31;;;;;;;1999.90;999.90;;;8.70;92.80;;;;;;5408601;26;20049;-84
2024/04/17 04:49:56;;;;;;;1999.90;999.90;;;8.60;92.90;;;;;;5430638;26;20580;-81
2024/04/17 04:52:22;;;;;;;1999.90;999.90;;;8.50;93.10;;;;;;5411532;26;20009;-81
2024/04/17 04:54:48;;;;;;;1999.90;999.90;;;8.60;93.10;;;;;;5427083;26;21006;-83
2024/04/17 04:57:13;;;;;;;1999.90;999.90;;;8.70;92.90;;;;;;5418283;26;20087;-81
2024/04/17 04:59:39;;;;;;;1999.90;999.90;;;8.60;92.90;;;;;;5422597;26;20000;-82
2024/04/17 05:02:05;;;;;;;1999.90;999.90;;;8.60;93.10;;;;;;5413701;26;20003;-87
2024/04/17 05:04:30;;;;;;;1999.90;999.90;;;8.40;93.30;;;;;;5423882;26;20006;-81
2024/04/17 05:06:56;;;;;;;1999.90;999.90;;;8.50;93.30;;;;;;5409105;26;20000;-85
2024/04/17 05:09:22;;;;;;;1999.90;999.90;;;8.50;93.20;;;;;;5417289;26;20014;-82
2024/04/17 05:11:48;;;;;;;1999.90;999.90;;;8.30;93.60;;;;;;5428602;26;20033;-80
2024/04/17 05:14:14;;;;;;;1999.90;999.90;;;8.40;93.50;;;;;;5419225;26;20010;-79
2024/04/17 05:16:39;;;;;;;1999.90;999.90;;;8.40;93.40;;;;;;5413185;26;20138;-84
2024/04/17 05:19:05;;;;;;;1999.90;999.90;;;8.20;93.40;;;;;;5439104;26;20018;-82
2024/04/17 05:21:31;;;;;;;1999.90;999.90;;;8.30;93.30;;;;;;5406555;26;20092;-85
2024/04/17 05:23:56;;;;;;;1999.90;999.90;;;8.30;92.90;;;;;;5410848;26;20011;-79
2024/04/17 05:26:22;;;;;;;1999.90;999.90;;;8.30;92.70;;;;;;5420280;26;20319;-82
2024/04/17 05:28:47;;;;;;;1999.90;999.90;;;8.20;92.20;;;;;;5411151;26;20786;-81
2024/04/17 05:31:13;;;;;;;1999.90;999.90;;;8.10;92.30;;;;;;5413222;26;19996;-80
2024/04/17 05:33:39;;;;;;;1999.90;999.90;;;8.10;92.20;;;;;;5417562;26;20003;-81
2024/04/17 05:36:05;;;;;;;1999.90;999.90;;;8.20;92.00;;;;;;5420088;26;20017;-85
2024/04/17 05:38:30;;;;;;;1999.90;999.90;;;8.20;91.80;;;;;;5419015;26;20010;-80
2024/04/17 05:40:56;;;;;;;1999.90;999.90;;;8.50;91.50;;;;;;5414280;26;20077;-79
2024/04/17 05:43:22;;;;;;;1999.90;999.90;;;8.90;90.60;;;;;;5408219;26;20012;-81
2024/04/17 05:45:48;;;;;;;1999.90;999.90;;;9.40;89.40;;;;;;5410257;26;20971;-79
2024/04/17 05:48:13;;;;;;;1999.90;999.90;;;9.90;86.60;;;;;;5408541;26;20029;-80
2024/04/17 05:50:42;;;;;;;1999.90;999.90;;;10.20;85.00;;;;;;5413886;26;19999;-80
2024/04/17 05:53:08;;;;;;;1999.90;999.90;;;10.50;83.30;;;;;;5420549;26;20220;-78
2024/04/17 05:55:34;;;;;;;1999.90;999.90;;;11.20;80.60;;;;;;5430423;26;20544;-81
2024/04/17 05:58:01;;;;;;;1999.90;999.90;;;11.40;79.00;;;;;;5426860;26;20458;-81
2024/04/17 06:00:27;;;;;;;1999.90;999.90;;;11.70;76.90;;;;;;5429119;26;20033;-79
2024/04/17 06:02:52;;;;;;;1999.90;999.90;;;12.10;75.00;;;;;;5433960;26;20044;-81
2024/04/17 06:05:18;;;;;;;1999.90;999.90;;;12.30;73.60;;;;;;5447279;26;20054;-79
2024/04/17 06:07:44;;;;;;;1999.90;999.90;;;12.50;72.00;;;;;;5425207;26;20013;-79
2024/04/17 06:10:10;;;;;;;1999.90;999.90;;;13.20;69.80;;;;;;5416263;26;20014;-78
2024/04/17 06:12:35;;;;;;;1999.90;999.90;;;13.40;69.20;;;;;;5420386;26;20465;-81
2024/04/17 06:15:01;;;;;;;1999.90;999.90;;;13.90;67.20;;;;;;5408583;26;20102;-81
2024/04/17 06:17:26;;;;;;;1999.90;999.90;;;14.50;64.30;;;;;;5423942;26;19999;-79
2024/04/17 06:19:52;;;;;;;1999.90;999.90;;;15.20;61.60;;;;;;5427603;26;20004;-79
2024/04/17 06:22:19;;;;;;;1999.90;999.90;;;15.50;59.80;;;;;;5424221;26;20010;-77
2024/04/17 06:24:45;;;;;;;;;;;15.70;59.30;;;;;;5414546;26;19999;-81
2024/04/17 06:27:10;;;;;;;1999.90;999.90;;;15.80;58.40;;;;;;5426314;26;19931;-78
2024/04/17 06:29:36;;;;;;;1999.90;999.90;;;16.20;57.20;;;;;;5413444;26;20007;-78
2024/04/17 06:32:03;;;;;;;1999.90;999.90;;;16.50;57.10;;;;;;5437730;26;20002;-78
2024/04/17 06:34:28;;;;;;;1999.90;999.90;;;16.80;55.60;;;;;;5432756;26;20802;-77
2024/04/17 06:36:54;;;;;;;1999.90;999.90;;;16.70;54.80;;;;;;5413747;26;19995;-77
2024/04/17 06:39:20;;;;;;;1999.90;999.90;;;16.90;54.70;;;;;;5412553;26;20226;-78
2024/04/17 06:41:46;;;;;;;1999.90;999.90;;;17.00;54.60;;;;;;5415790;26;19995;-78
2024/04/17 06:44:15;;;;;;;1999.90;999.90;;;17.30;53.50;;;;;;5412451;26;20521;-77
2024/04/17 06:46:40;;;;;;;1999.90;999.90;;;17.10;53.10;;;;;;5405670;26;20076;-77
2024/04/17 06:49:06;;;;;;;1999.90;999.90;;;17.70;51.80;;;;;;5408806;26;20678;-77
2024/04/17 06:51:32;;;;;;;1999.90;999.90;;;16.50;51.70;;;;;;5416431;26;20311;-77
2024/04/17 06:53:57;;;;;;;1999.90;999.90;;;17.40;54.50;;;;;;5415291;26;21104;-77
2024/04/17 06:56:23;;;;;;;1999.90;999.90;;;15.20;55.90;;;;;;5422158;26;19995;-77
2024/04/17 06:58:49;;;;;;;1999.90;999.90;;;14.10;59.00;;;;;;5414650;26;20672;-77
2024/04/17 07:01:14;;;;;;;1999.90;999.90;;;15.20;56.30;;;;;;5413020;26;20018;-77
2024/04/17 07:03:40;;;;;;;1999.90;999.90;;;15.90;54.50;;;;;;5429597;26;19995;-78
2024/04/17 07:06:06;;;;;;;1999.90;999.90;;;17.30;53.60;;;;;;5420917;26;20003;-78
2024/04/17 07:08:31;;;;;;;1999.90;999.90;;;19.00;50.40;;;;;;5420618;26;20009;-77
2024/04/17 07:10:57;;;;;;;1999.90;999.90;;;18.60;47.00;;;;;;5421375;26;20445;-78
2024/04/17 07:13:23;;;;;;;1999.90;999.90;;;19.10;47.50;;;;;;5426117;26;20216;-78
2024/04/17 07:15:49;;;;;;;1999.90;999.90;;;19.50;46.80;;;;;;5405727;26;20008;-78
2024/04/17 07:18:14;;;;;;;1999.90;999.90;;;19.30;46.10;;;;;;5424776;26;20229;-77
2024/04/17 07:20:42;;;;;;;1999.90;999.90;;;17.40;51.80;;;;;;5424528;26;20419;-77
2024/04/17 07:23:07;;;;;;;1999.90;999.90;;;17.50;51.20;;;;;;5427613;26;19999;-77
2024/04/17 07:25:33;;;;;;;1999.90;999.90;;;17.50;49.10;;;;;;5407823;26;20010;-78
2024/04/17 07:27:59;;;;;;;1999.90;999.90;;;15.20;51.30;;;;;;5416433;26;20003;-77
2024/04/17 07:30:24;;;;;;;1999.90;999.90;;;18.30;47.10;;;;;;5420427;26;19995;-78
2024/04/17 07:32:50;;;;;;;1999.90;999.90;;;19.80;44.00;;;;;;5418571;26;19998;-78
2024/04/17 07:35:16;;;;;;;1999.90;999.90;;;20.30;42.30;;;;;;5405442;26;20322;-77
2024/04/17 07:37:41;;;;;;;1999.90;999.90;;;21.00;41.30;;;;;;5428433;26;20460;-78
2024/04/17 07:40:08;;;;;;;1999.90;999.90;;;21.20;41.30;;;;;;5412691;26;20339;-78
2024/04/17 07:42:33;;;;;;;;;;;22.30;40.70;;;;;;5423385;26;20046;-77
2024/04/17 07:44:59;;;;;;;1999.90;999.90;;;21.30;39.80;;;;;;5425782;26;19932;-78
2024/04/17 07:47:25;;;;;;;1999.90;999.90;;;21.00;40.80;;;;;;5423920;26;20742;-79
2024/04/17 07:49:50;;;;;;;1999.90;999.90;;;22.40;39.60;;;;;;5417153;26;20000;-78
2024/04/17 07:52:16;;;;;;;1999.90;999.90;;;22.80;39.90;;;;;;5426634;26;20044;-77
2024/04/17 07:54:42;;;;;;;1999.90;999.90;;;22.90;36.70;;;;;;5418617;26;20006;-77
2024/04/17 07:57:07;;;;;;;1999.90;999.90;;;22.50;39.90;;;;;;5438404;26;19990;-77
2024/04/17 07:59:33;;;;;;;1999.90;999.90;;;23.90;36.60;;;;;;5415762;26;20010;-77
2024/04/17 08:01:59;;;;;;;1999.90;999.90;;;24.10;33.80;;;;;;5425209;26;20137;-78
2024/04/17 08:04:24;;;;;;;1999.90;999.90;;;22.00;37.40;;;;;;5424163;26;20798;-78
2024/04/17 08:06:50;;;;;;;1999.90;999.90;;;23.20;38.20;;;;;;5432482;26;20040;-79
2024/04/17 08:09:16;;;;;;;1999.90;999.90;;;24.30;37.00;;;;;;5425669;26;19992;-77
2024/04/17 08:11:41;;;;;;;1999.90;999.90;;;23.70;34.10;;;;;;5420597;26;20032;-78
2024/04/17 08:14:07;;;;;;;1999.90;999.90;;;24.30;36.00;;;;;;5415170;26;20018;-77
2024/04/17 08:16:33;;;;;;;1999.90;999.90;;;25.10;34.60;;;;;;5407245;26;19999;-77
2024/04/17 08:18:59;;;;;;;1999.90;999.90;;;25.90;33.50;;;;;;5420671;26;20127;-77
2024/04/17 08:21:25;;;;;;;1999.90;999.90;;;24.00;35.10;;;;;;5428324;26;20524;-76
2024/04/17 08:23:51;;;;;;;1999.90;999.90;;;24.40;34.30;;;;;;5410093;26;20004;-77
2024/04/17 08:26:16;;;;;;;1999.90;999.90;;;25.60;33.20;;;;;;5410388;26;20018;-77
2024/04/17 08:28:42;;;;;;;1999.90;999.90;;;23.30;35.30;;;;;;5411967;26;20511;-77
2024/04/17 08:31:08;;;;;;;1999.90;999.90;;;20.00;39.30;;;;;;5414209;26;19995;-77
2024/04/17 08:33:33;;;;;;;1999.90;999.90;;;23.70;34.30;;;;;;5409923;26;20003;-76
2024/04/17 08:35:59;;;;;;;1999.90;999.90;;;24.20;30.80;;;;;;5412749;26;20004;-77
2024/04/17 08:38:26;;;;;;;1999.90;999.90;;;25.60;32.10;;;;;;5422734;26;20059;-78
2024/04/17 08:40:52;;;;;;;1999.90;999.90;;;25.40;30.40;;;;;;5426958;26;20046;-77
2024/04/17 08:43:26;;;;;;;1999.90;999.90;;;25.60;30.50;;;;;;5403263;26;20328;-78
2024/04/17 08:45:56;;;;;;;1999.90;999.90;;;24.40;32.70;;;;;;5402050;26;20446;-78
2024/04/17 08:48:23;;;;;;;1999.90;999.90;;;25.20;32.70;;;;;;5417246;26;20006;-78
2024/04/17 08:50:50;;;;;;;1999.90;999.90;;;20.10;37.80;;;;;;5439894;26;20010;-77
2024/04/17 08:53:20;;;;;;;1999.90;999.90;;;17.50;44.70;;;;;;5416943;26;19995;-77
2024/04/17 08:55:47;;;;;;;1999.90;999.90;;;17.50;44.90;;;;;;5403514;26;20000;-78
2024/04/17 08:58:13;;;;;;;1999.90;999.90;;;22.40;40.50;;;;;;5437813;26;20009;-78
2024/04/17 09:00:40;;;;;;;1999.90;999.90;;;21.80;36.50;;;;;;5430500;26;19998;-76
2024/04/17 09:03:07;;;;;;;;;;;23.20;37.30;;;;;;5414814;26;20009;-77
2024/04/17 09:05:34;;;;;;;1999.90;999.90;;;24.30;30.80;;;;;;5415586;26;19925;-76
2024/04/17 09:08:00;;;;;;;1999.90;999.90;;;21.30;35.30;;;;;;5454797;26;20039;-78
2024/04/17 09:10:26;;;;;;;1999.90;999.90;;;21.50;35.70;;;;;;5446671;26;20009;-78
2024/04/17 09:12:52;;;;;;;1999.90;999.90;;;23.30;33.40;;;;;;5432037;26;20003;-79
2024/04/17 09:15:18;;;;;;;;;;;25.20;32.70;;;;;;5405556;26;20446;-76
2024/04/17 09:17:46;;;;;;;1999.90;999.90;;;20.60;36.50;;;;;;5421121;26;19925;-77
2024/04/17 09:20:13;;;;;;;1999.90;999.90;;;18.50;40.10;;;;;;5405905;26;20021;-77
2024/04/17 09:22:39;;;;;;;;;;;18.10;41.40;;;;;;5421610;26;20010;-77
2024/04/17 09:25:13;;;;;;;;;;;22.40;37.20;;;;;;5407128;26;19925;-77
2024/04/17 09:27:39;;;;;;;1999.90;999.90;;;21.40;35.40;;;;;;5410268;26;19931;-77
2024/04/17 09:30:05;;;;;;;1999.90;999.90;;;18.40;40.50;;;;;;5412339;26;19996;-77
2024/04/17 09:32:32;;;;;;;1999.90;999.90;;;17.30;43.20;;;;;;5431053;26;20502;-78
2024/04/17 09:34:57;;;;;;;1999.90;999.90;;;19.20;41.60;;;;;;5409462;26;20454;-77
2024/04/17 09:37:25;;;;;;;1999.90;999.90;;;19.00;39.50;;;;;;5406854;26;20007;-76
2024/04/17 09:39:51;;;;;;;1999.90;999.90;;;21.40;37.70;;;;;;5412372;26;20257;-77
2024/04/17 09:42:17;;;;;;;1999.90;999.90;;;20.00;34.90;;;;;;5411480;26;20083;-77
2024/04/17 09:44:45;;;;;;;1999.90;999.90;;;18.90;38.00;;;;;;5404943;26;20003;-77
2024/04/17 09:47:11;;;;;;;1999.90;999.90;;;18.70;37.50;;;;;;5422517;26;19998;-77
2024/04/17 09:49:42;;;;;;;1999.90;999.90;;;17.10;39.00;;;;;;5415252;26;19999;-77
2024/04/17 09:52:12;;;;;;;1999.90;999.90;;;16.90;42.40;;;;;;5424981;26;20056;-78
2024/04/17 09:54:38;;;;;;;1999.90;999.90;;;16.10;46.10;;;;;;5425552;26;19995;-77
2024/04/17 09:57:05;;;;;;;1999.90;999.90;;;15.80;45.40;;;;;;5437358;26;19994;-78
2024/04/17 09:59:33;;;;;;;1999.90;999.90;;;16.00;46.00;;;;;;5413968;26;20088;-77
2024/04/17 10:02:00;;;;;;;1999.90;999.90;;;16.70;45.90;;;;;;5428785;26;20009;-77
2024/04/17 10:04:28;;;;;;;1999.90;999.90;;;16.90;45.00;;;;;;5419887;26;19995;-77
2024/04/17 10:06:55;;;;;;;1999.90;999.90;;;16.80;43.90;;;;;;5424183;26;20026;-77
2024/04/17 10:09:22;;;;;;;1999.90;999.90;;;16.70;45.70;;;;;;5421732;26;20436;-77
2024/04/17 10:11:50;;;;;;;1999.90;999.90;;;16.70;45.40;;;;;;5443919;26;20006;-77
2024/04/17 10:14:17;;;;;;;1999.90;999.90;;;16.70;44.00;;;;;;5409943;26;20010;-77
2024/04/17 10:16:43;;;;;;;1999.90;999.90;;;17.80;43.00;;;;;;5407751;26;20915;-78
2024/04/17 10:19:09;;;;;;;1999.90;999.90;;;18.00;38.20;;;;;;5425578;26;19995;-76
2024/04/17 10:21:38;;;;;;;1999.90;999.90;;;17.50;41.20;;;;;;5426741;26;20076;-77
2024/04/17 10:24:07;;;;;;;1999.90;999.90;;;16.70;41.20;;;;;;5406039;26;20031;-77
2024/04/17 10:26:46;;;;;;;1999.90;999.90;;;16.10;42.60;;;;;;5427993;26;20366;-78
2024/04/17 10:29:22;;;;;;;1999.90;999.90;;;15.80;41.00;;;;;;5406035;26;20075;-77
2024/04/17 10:32:01;;;;;;;1999.90;999.90;;;15.70;42.00;;;;;;5402772;26;20000;-76
2024/04/17 10:34:28;;;;;;;1999.90;999.90;;;15.50;41.60;;;;;;5410937;26;20007;-77
2024/04/17 10:36:54;;;;;;;;;;;15.40;43.90;;;;;;5414150;26;20460;-77
2024/04/17 10:39:20;;;;;;;;;;;15.60;42.50;;;;;;5420012;26;19952;-76
2024/04/17 10:41:46;;;;;;;1999.90;999.90;;;16.00;43.70;;;;;;5413143;26;19925;-77
2024/04/17 10:44:13;;;;;;;1999.90;999.90;;;15.50;44.40;;;;;;5429890;26;20006;-77
2024/04/17 10:46:39;;;;;;;1999.90;999.90;;;15.50;45.70;;;;;;5428067;26;20005;-77
2024/04/17 10:49:18;;;;;;;1999.90;999.90;;;15.70;48.70;;;;;;5429080;26;20930;-78
2024/04/17 10:51:44;;;;;;;1999.90;999.90;;;16.20;48.60;;;;;;5421797;26;20500;-76
2024/04/17 10:54:13;;;;;;;1999.90;999.90;;;16.20;48.50;;;;;;5411014;26;20003;-78
2024/04/17 10:56:39;;;;;;;1999.90;999.90;;;16.10;45.40;;;;;;5426303;26;20074;-76
2024/04/17 10:59:05;;;;;;;1999.90;999.90;;;16.10;46.10;;;;;;5428437;26;20780;-77
2024/04/17 11:01:31;;;;;;;1999.90;999.90;;;16.60;46.80;;;;;;5417860;26;20073;-78
2024/04/17 11:04:00;;;;;;;1999.90;999.90;;;18.00;45.20;;;;;;5428209;26;20824;-76
2024/04/17 11:06:26;;;;;;;1999.90;999.90;;;17.80;42.20;;;;;;5419288;26;19999;-77
2024/04/17 11:08:54;;;;;;;1999.90;999.90;;;17.40;42.50;;;;;;5427807;26;20502;-77
2024/04/17 11:11:21;;;;;;;1999.90;999.90;;;16.50;40.60;;;;;;5419670;26;20004;-77
2024/04/17 11:13:47;;;;;;;1999.90;999.90;;;15.70;41.40;;;;;;5423082;26;20050;-77
2024/04/17 11:16:13;;;;;;;1999.90;999.90;;;15.60;42.80;;;;;;5407478;26;20046;-77
2024/04/17 11:18:39;;;;;;;1999.90;999.90;;;15.20;44.40;;;;;;5438058;26;20349;-77
2024/04/17 11:21:05;;;;;;;1999.90;999.90;;;15.10;44.30;;;;;;5408831;26;20564;-77
2024/04/17 11:23:44;;;;;;;1999.90;999.90;;;14.70;45.80;;;;;;5420972;26;19999;-77
2024/04/17 11:26:11;;;;;;;1999.90;999.90;;;15.10;45.90;;;;;;5413176;26;20027;-76
2024/04/17 11:28:44;;;;;;;1999.90;999.90;;;15.60;44.60;;;;;;5404561;26;20036;-77
2024/04/17 11:31:11;;;;;;;1999.90;999.90;;;15.50;44.40;;;;;;5427909;26;20010;-77
2024/04/17 11:33:38;;;;;;;1999.90;999.90;;;15.50;43.10;;;;;;5411545;26;20051;-77
2024/04/17 11:36:14;;;;;;;1999.90;999.90;;;16.40;44.50;;;;;;5421858;26;20003;-77
2024/04/17 11:38:46;;;;;;;1999.90;999.90;;;16.80;41.80;;;;;;5419670;26;20006;-77
2024/04/17 11:41:15;;;;;;;1999.90;999.90;;;16.90;40.90;;;;;;5404558;26;20014;-78
2024/04/17 11:43:42;;;;;;;1999.90;999.90;;;16.90;42.80;;;;;;5422626;26;20013;-77
2024/04/17 11:46:11;;;;;;;1999.90;999.90;;;17.00;45.20;;;;;;5414266;26;20084;-77
2024/04/17 11:48:37;;;;;;;1999.90;999.90;;;16.40;43.30;;;;;;5421187;26;20008;-76
2024/04/17 11:51:03;;;;;;;1999.90;999.90;;;15.70;45.20;;;;;;5428529;26;20907;-77
2024/04/17 11:53:29;;;;;;;1999.90;999.90;;;15.20;44.10;;;;;;5409960;26;19999;-77
2024/04/17 11:55:54;;;;;;;1999.90;999.90;;;15.10;45.70;;;;;;5414715;26;20014;-77
2024/04/17 11:58:20;;;;;;;1999.90;999.90;;;15.20;44.60;;;;;;5423391;26;20004;-78
2024/04/17 12:00:46;;;;;;;1999.90;999.90;;;14.90;43.80;;;;;;5405903;26;19995;-76